sensor_id;sensor_type;location;lat;lon;timestamp;pressure;altitude;pressure_sealevel;temperature;humidity
67697;BME280;54486;51.442;6.778;2023-02-23T00:02:06;101072.78;;;9.59;100.00
67697;BME280;54486;51.442;6.778;2023-02-23T00:04:33;101077.13;;;9.51;100.00
67697;BME280;54486;51.442;6.778;2023-02-23T00:07:01;101074.50;;;9.46;100.00
67697;BME280;54486;51.442;6.778;2023-02-23T00:09:28;101079.69;;;9.34;100.00
67697;BME280;54486;51.442;6.778;2023-02-23T00:12:01;101073.63;;;9.40;100.00
67697;BME280;54486;51.442;6.778;2023-02-23T00:14:35;101075.31;;;9.26;100.00
67697;BME280;54486;51.442;6.778;2023-02-23T00:17:06;101073.63;;;9.31;100.00
67697;BME280;54486;51.442;6.778;2023-02-23T00:19:41;101077.91;;;9.23;100.00
67697;BME280;54486;51.442;6.778;2023-02-23T00:22:09;101071.84;;;9.24;100.00
67697;BME280;54486;51.442;6.778;2023-02-23T00:24:36;101071.84;;;9.21;100.00
67697;BME280;54486;51.442;6.778;2023-02-23T00:27:04;101071.84;;;9.24;100.00
67697;BME280;54486;51.442;6.778;2023-02-23T00:29:32;101070.13;;;9.29;100.00
67697;BME280;54486;51.442;6.778;2023-02-23T00:32:05;101067.50;;;9.29;100.00
67697;BME280;54486;51.442;6.778;2023-02-23T00:34:32;101071.88;;;9.30;100.00
67697;BME280;54486;51.442;6.778;2023-02-23T00:37:01;101066.66;;;9.30;100.00
67697;BME280;54486;51.442;6.778;2023-02-23T00:39:28;101064.06;;;9.31;100.00
67697;BME280;54486;51.442;6.778;2023-02-23T00:41:55;101066.66;;;9.33;100.00
67697;BME280;54486;51.442;6.778;2023-02-23T00:44:23;101061.47;;;9.36;100.00
67697;BME280;54486;51.442;6.778;2023-02-23T00:46:50;101068.41;;;9.34;100.00
67697;BME280;54486;51.442;6.778;2023-02-23T00:49:19;101061.47;;;9.36;100.00
67697;BME280;54486;51.442;6.778;2023-02-23T00:51:46;101055.41;;;9.37;100.00
67697;BME280;54486;51.442;6.778;2023-02-23T00:54:13;101052.78;;;9.34;100.00
67697;BME280;54486;51.442;6.778;2023-02-23T00:56:41;101064.97;;;9.38;100.00
67697;BME280;54486;51.442;6.778;2023-02-23T00:59:08;101061.47;;;9.39;100.00
67697;BME280;54486;51.442;6.778;2023-02-23T01:01:35;101064.97;;;9.41;100.00
67697;BME280;54486;51.442;6.778;2023-02-23T01:04:03;101061.47;;;9.39;100.00
67697;BME280;54486;51.442;6.778;2023-02-23T01:06:30;101066.69;;;9.42;100.00
67697;BME280;54486;51.442;6.778;2023-02-23T01:08:58;101058.00;;;9.43;100.00
67697;BME280;54486;51.442;6.778;2023-02-23T01:11:30;101058.88;;;9.43;100.00
67697;BME280;54486;51.442;6.778;2023-02-23T01:13:58;101059.75;;;9.42;100.00
67697;BME280;54486;51.442;6.778;2023-02-23T01:16:31;101056.25;;;9.42;100.00
67697;BME280;54486;51.442;6.778;2023-02-23T01:18:59;101056.25;;;9.39;100.00
67697;BME280;54486;51.442;6.778;2023-02-23T01:21:31;101056.25;;;9.36;100.00
67697;BME280;54486;51.442;6.778;2023-02-23T01:23:58;101056.25;;;9.36;100.00
67697;BME280;54486;51.442;6.778;2023-02-23T01:26:28;101063.22;;;9.34;100.00
67697;BME280;54486;51.442;6.778;2023-02-23T01:28:57;101055.38;;;9.32;100.00
67697;BME280;54486;51.442;6.778;2023-02-23T01:31:25;101055.38;;;9.32;100.00
67697;BME280;54486;51.442;6.778;2023-02-23T01:33:57;101061.44;;;9.30;100.00
67697;BME280;54486;51.442;6.778;2023-02-23T01:36:28;101058.88;;;9.28;100.00
67697;BME280;54486;51.442;6.778;2023-02-23T01:39:00;101059.72;;;9.32;100.00
67697;BME280;54486;51.442;6.778;2023-02-23T01:41:29;101059.69;;;9.29;100.00
67697;BME280;54486;51.442;6.778;2023-02-23T01:44:03;101056.25;;;9.30;100.00
67697;BME280;54486;51.442;6.778;2023-02-23T01:46:35;101058.00;;;9.28;100.00
67697;BME280;54486;51.442;6.778;2023-02-23T01:49:02;101056.25;;;9.30;100.00
67697;BME280;54486;51.442;6.778;2023-02-23T01:51:30;101060.59;;;9.31;100.00
67697;BME280;54486;51.442;6.778;2023-02-23T01:54:01;101058.84;;;9.30;100.00
67697;BME280;54486;51.442;6.778;2023-02-23T01:56:31;101058.00;;;9.31;100.00
67697;BME280;54486;51.442;6.778;2023-02-23T01:59:01;101059.72;;;9.32;100.00
67697;BME280;54486;51.442;6.778;2023-02-23T02:01:30;101052.78;;;9.31;100.00
67697;BME280;54486;51.442;6.778;2023-02-23T02:04:00;101047.56;;;9.31;100.00
67697;BME280;54486;51.442;6.778;2023-02-23T02:06:32;101058.84;;;9.33;100.00
67697;BME280;54486;51.442;6.778;2023-02-23T02:09:06;101051.91;;;9.33;100.00
67697;BME280;54486;51.442;6.778;2023-02-23T02:11:37;101063.19;;;9.31;100.00
67697;BME280;54486;51.442;6.778;2023-02-23T02:14:11;101059.72;;;9.30;100.00
67697;BME280;54486;51.442;6.778;2023-02-23T02:27:20;101053.59;;;9.19;100.00
67697;BME280;54486;51.442;6.778;2023-02-23T02:35:45;101058.81;;;9.16;100.00
67697;BME280;54486;51.442;6.778;2023-02-23T02:40:53;101057.06;;;9.12;100.00
67697;BME280;54486;51.442;6.778;2023-02-23T02:43:37;101052.75;;;9.16;100.00
67697;BME280;54486;51.442;6.778;2023-02-23T02:46:19;101045.78;;;9.12;100.00
67697;BME280;54486;51.442;6.778;2023-02-23T02:54:23;101046.66;;;9.12;100.00
67697;BME280;54486;51.442;6.778;2023-02-23T02:56:52;101045.78;;;9.12;100.00
67697;BME280;54486;51.442;6.778;2023-02-23T02:59:23;101049.25;;;9.14;100.00
67697;BME280;54486;51.442;6.778;2023-02-23T03:02:16;101051.00;;;9.09;100.00
67697;BME280;54486;51.442;6.778;2023-02-23T03:05:15;101045.75;;;8.99;100.00
67697;BME280;54486;51.442;6.778;2023-02-23T03:10:54;101052.69;;;9.00;100.00
67697;BME280;54486;51.442;6.778;2023-02-23T03:13:52;101047.47;;;9.00;100.00
67697;BME280;54486;51.442;6.778;2023-02-23T03:19:47;101054.41;;;8.95;100.00
67697;BME280;54486;51.442;6.778;2023-02-23T03:22:38;101050.97;;;8.99;100.00
67697;BME280;54486;51.442;6.778;2023-02-23T03:25:34;101056.13;;;8.95;100.00
67697;BME280;54486;51.442;6.778;2023-02-23T03:28:28;101049.22;;;8.98;100.00
67697;BME280;54486;51.442;6.778;2023-02-23T03:31:19;101056.19;;;9.02;100.00
67697;BME280;54486;51.442;6.778;2023-02-23T03:34:16;101057.88;;;8.97;100.00
67697;BME280;54486;51.442;6.778;2023-02-23T03:37:05;101057.88;;;8.97;100.00
67697;BME280;54486;51.442;6.778;2023-02-23T03:39:58;101065.72;;;9.03;100.00
67697;BME280;54486;51.442;6.778;2023-02-23T03:42:48;101064.84;;;9.04;100.00
67697;BME280;54486;51.442;6.778;2023-02-23T03:45:40;101061.41;;;9.09;100.00
67697;BME280;54486;51.442;6.778;2023-02-23T03:48:33;101059.66;;;9.11;100.00
67697;BME280;54486;51.442;6.778;2023-02-23T03:51:21;101057.91;;;9.07;100.00
67697;BME280;54486;51.442;6.778;2023-02-23T03:54:17;101063.13;;;9.10;100.00
67697;BME280;54486;51.442;6.778;2023-02-23T03:57:08;101060.53;;;9.10;100.00
67697;BME280;54486;51.442;6.778;2023-02-23T03:59:58;101064.88;;;9.12;100.00
67697;BME280;54486;51.442;6.778;2023-02-23T04:02:46;101066.63;;;9.12;100.00
67697;BME280;54486;51.442;6.778;2023-02-23T04:05:33;101058.78;;;9.13;100.00
67697;BME280;54486;51.442;6.778;2023-02-23T04:08:21;101063.13;;;9.13;100.00
67697;BME280;54486;51.442;6.778;2023-02-23T04:11:19;101059.66;;;9.08;100.00
67697;BME280;54486;51.442;6.778;2023-02-23T04:14:17;101064.00;;;9.09;100.00
67697;BME280;54486;51.442;6.778;2023-02-23T04:16:45;101065.72;;;9.10;100.00
67697;BME280;54486;51.442;6.778;2023-02-23T04:19:12;101068.31;;;9.10;100.00
67697;BME280;54486;51.442;6.778;2023-02-23T04:21:40;101065.72;;;9.08;100.00
67697;BME280;54486;51.442;6.778;2023-02-23T04:24:07;101073.53;;;9.13;100.00
67697;BME280;54486;51.442;6.778;2023-02-23T04:26:35;101083.94;;;9.13;100.00
67697;BME280;54486;51.442;6.778;2023-02-23T04:29:03;101070.94;;;9.10;100.00
67697;BME280;54486;51.442;6.778;2023-02-23T04:31:30;101070.06;;;9.11;100.00
67697;BME280;54486;51.442;6.778;2023-02-23T04:33:57;101079.59;;;9.07;100.00
67697;BME280;54486;51.442;6.778;2023-02-23T04:36:25;101078.72;;;9.03;100.00
67697;BME280;54486;51.442;6.778;2023-02-23T04:38:55;101082.22;;;9.06;100.00
67697;BME280;54486;51.442;6.778;2023-02-23T04:41:22;101081.31;;;9.00;100.00
67697;BME280;54486;51.442;6.778;2023-02-23T04:43:49;101075.25;;;8.98;100.00
67697;BME280;54486;51.442;6.778;2023-02-23T04:46:16;101077.00;;;8.99;100.00
67697;BME280;54486;51.442;6.778;2023-02-23T04:48:44;101071.78;;;8.96;100.00
67697;BME280;54486;51.442;6.778;2023-02-23T04:51:10;101084.75;;;8.95;100.00
67697;BME280;54486;51.442;6.778;2023-02-23T04:53:37;101078.69;;;8.97;100.00
67697;BME280;54486;51.442;6.778;2023-02-23T04:56:05;101081.31;;;8.96;100.00
67697;BME280;54486;51.442;6.778;2023-02-23T04:58:32;101083.91;;;8.94;100.00
67697;BME280;54486;51.442;6.778;2023-02-23T05:01:09;101077.81;;;8.97;100.00
67697;BME280;54486;51.442;6.778;2023-02-23T05:03:43;101082.16;;;8.93;100.00
67697;BME280;54486;51.442;6.778;2023-02-23T05:06:10;101080.44;;;8.95;100.00
67697;BME280;54486;51.442;6.778;2023-02-23T05:08:38;101088.25;;;8.95;100.00
67697;BME280;54486;51.442;6.778;2023-02-23T05:11:05;101084.75;;;8.92;100.00
67697;BME280;54486;51.442;6.778;2023-02-23T05:13:32;101085.59;;;8.86;100.00
67697;BME280;54486;51.442;6.778;2023-02-23T05:16:00;101080.44;;;8.92;100.00
67697;BME280;54486;51.442;6.778;2023-02-23T05:18:27;101077.81;;;8.94;100.00
67697;BME280;54486;51.442;6.778;2023-02-23T05:21:00;101084.75;;;8.95;100.00
67697;BME280;54486;51.442;6.778;2023-02-23T05:23:27;101077.84;;;8.95;100.00
67697;BME280;54486;51.442;6.778;2023-02-23T05:25:59;101093.44;;;8.95;100.00
67697;BME280;54486;51.442;6.778;2023-02-23T05:28:30;101088.22;;;8.97;100.00
67697;BME280;54486;51.442;6.778;2023-02-23T05:30:58;101094.31;;;9.00;100.00
67697;BME280;54486;51.442;6.778;2023-02-23T05:33:26;101091.72;;;8.97;100.00
67697;BME280;54486;51.442;6.778;2023-02-23T05:35:53;101092.56;;;8.93;100.00
67697;BME280;54486;51.442;6.778;2023-02-23T05:38:20;101090.81;;;8.89;100.00
67697;BME280;54486;51.442;6.778;2023-02-23T05:40:48;101093.44;;;8.95;100.00
67697;BME280;54486;51.442;6.778;2023-02-23T05:43:15;101096.91;;;8.93;100.00
67697;BME280;54486;51.442;6.778;2023-02-23T05:45:42;101097.75;;;8.93;100.00
67697;BME280;54486;51.442;6.778;2023-02-23T05:48:10;101090.84;;;8.95;100.00
67697;BME280;54486;51.442;6.778;2023-02-23T05:50:38;101097.81;;;8.96;100.00
67697;BME280;54486;51.442;6.778;2023-02-23T05:53:05;101090.84;;;8.98;100.00
67697;BME280;54486;51.442;6.778;2023-02-23T05:55:36;101093.44;;;8.97;100.00
67697;BME280;54486;51.442;6.778;2023-02-23T05:58:03;101096.03;;;8.92;100.00
67697;BME280;54486;51.442;6.778;2023-02-23T06:00:39;101099.50;;;8.94;100.00
67697;BME280;54486;51.442;6.778;2023-02-23T06:03:07;101096.91;;;8.94;100.00
67697;BME280;54486;51.442;6.778;2023-02-23T06:05:37;101099.53;;;8.97;100.00
67697;BME280;54486;51.442;6.778;2023-02-23T06:08:08;101109.91;;;8.94;100.00
67697;BME280;54486;51.442;6.778;2023-02-23T06:10:35;101101.25;;;8.95;100.00
67697;BME280;54486;51.442;6.778;2023-02-23T06:13:01;101109.91;;;8.91;100.00
67697;BME280;54486;51.442;6.778;2023-02-23T06:15:29;101103.84;;;8.92;100.00
67697;BME280;54486;51.442;6.778;2023-02-23T06:17:58;101113.38;;;8.90;100.00
67697;BME280;54486;51.442;6.778;2023-02-23T06:20:28;101111.66;;;8.97;100.00
67697;BME280;54486;51.442;6.778;2023-02-23T06:22:55;101113.38;;;8.90;100.00
67697;BME280;54486;51.442;6.778;2023-02-23T06:25:23;101116.84;;;8.89;100.00
67697;BME280;54486;51.442;6.778;2023-02-23T06:27:50;101116.81;;;8.80;100.00
67697;BME280;54486;51.442;6.778;2023-02-23T06:30:19;101121.13;;;8.81;100.00
67697;BME280;54486;51.442;6.778;2023-02-23T06:32:47;101135.00;;;8.82;100.00
67697;BME280;54486;51.442;6.778;2023-02-23T06:35:16;101130.69;;;8.82;100.00
67697;BME280;54486;51.442;6.778;2023-02-23T06:37:43;101127.19;;;8.77;100.00
67697;BME280;54486;51.442;6.778;2023-02-23T06:40:11;101135.88;;;8.79;100.00
67697;BME280;54486;51.442;6.778;2023-02-23T06:42:39;101139.34;;;8.81;100.00
67697;BME280;54486;51.442;6.778;2023-02-23T06:45:06;101137.56;;;8.74;100.00
67697;BME280;54486;51.442;6.778;2023-02-23T06:47:33;101142.75;;;8.74;100.00
67697;BME280;54486;51.442;6.778;2023-02-23T06:50:00;101142.75;;;8.74;100.00
67697;BME280;54486;51.442;6.778;2023-02-23T06:52:28;101148.84;;;8.73;100.00
67697;BME280;54486;51.442;6.778;2023-02-23T06:54:56;101147.13;;;8.74;100.00
67697;BME280;54486;51.442;6.778;2023-02-23T06:57:26;101154.91;;;8.72;100.00
67697;BME280;54486;51.442;6.778;2023-02-23T06:59:53;101149.66;;;8.66;100.00
67697;BME280;54486;51.442;6.778;2023-02-23T07:02:20;101160.06;;;8.66;100.00
67697;BME280;54486;51.442;6.778;2023-02-23T07:04:47;101161.81;;;8.67;100.00
67697;BME280;54486;51.442;6.778;2023-02-23T07:07:14;101162.66;;;8.66;100.00
67697;BME280;54486;51.442;6.778;2023-02-23T07:09:41;101165.25;;;8.63;100.00
67697;BME280;54486;51.442;6.778;2023-02-23T07:12:08;101170.44;;;8.63;100.00
67697;BME280;54486;51.442;6.778;2023-02-23T07:14:38;101166.09;;;8.61;100.00
67697;BME280;54486;51.442;6.778;2023-02-23T07:17:05;101174.75;;;8.60;100.00
67697;BME280;54486;51.442;6.778;2023-02-23T07:19:32;101173.84;;;8.53;100.00
67697;BME280;54486;51.442;6.778;2023-02-23T07:21:59;101185.97;;;8.51;100.00
67697;BME280;54486;51.442;6.778;2023-02-23T07:24:28;101179.03;;;8.50;100.00
67697;BME280;54486;51.442;6.778;2023-02-23T07:26:59;101180.81;;;8.57;100.00
67697;BME280;54486;51.442;6.778;2023-02-23T07:29:30;101184.31;;;8.62;100.00
67697;BME280;54486;51.442;6.778;2023-02-23T07:31:57;101188.72;;;8.68;100.00
67697;BME280;54486;51.442;6.778;2023-02-23T07:34:28;101187.84;;;8.67;100.00
67697;BME280;54486;51.442;6.778;2023-02-23T07:36:56;101193.03;;;8.67;100.00
67697;BME280;54486;51.442;6.778;2023-02-23T07:39:23;101187.84;;;8.67;100.00
67697;BME280;54486;51.442;6.778;2023-02-23T07:41:51;101192.16;;;8.71;100.00
67697;BME280;54486;51.442;6.778;2023-02-23T07:44:18;101196.47;;;8.66;100.00
67697;BME280;54486;51.442;6.778;2023-02-23T07:46:45;101194.72;;;8.62;100.00
67697;BME280;54486;51.442;6.778;2023-02-23T07:49:12;101201.69;;;8.66;100.00
67697;BME280;54486;51.442;6.778;2023-02-23T07:51:39;101200.00;;;8.74;100.00
67697;BME280;54486;51.442;6.778;2023-02-23T07:54:06;101205.25;;;8.77;100.00
67697;BME280;54486;51.442;6.778;2023-02-23T07:56:34;101212.19;;;8.78;100.00
67697;BME280;54486;51.442;6.778;2023-02-23T07:59:04;101208.72;;;8.79;100.00
67697;BME280;54486;51.442;6.778;2023-02-23T08:01:31;101210.47;;;8.80;100.00
67697;BME280;54486;51.442;6.778;2023-02-23T08:03:59;101215.69;;;8.80;100.00
67697;BME280;54486;51.442;6.778;2023-02-23T08:06:26;101213.84;;;8.72;100.00
67697;BME280;54486;51.442;6.778;2023-02-23T08:08:55;101215.56;;;8.68;100.00
67697;BME280;54486;51.442;6.778;2023-02-23T08:11:24;101215.59;;;8.71;100.00
67697;BME280;54486;51.442;6.778;2023-02-23T08:13:54;101224.16;;;8.55;100.00
67697;BME280;54486;51.442;6.778;2023-02-23T08:16:26;101219.78;;;8.51;100.00
67697;BME280;54486;51.442;6.778;2023-02-23T08:18:57;101220.72;;;8.62;100.00
67697;BME280;54486;51.442;6.778;2023-02-23T08:21:25;101226.00;;;8.71;100.00
67697;BME280;54486;51.442;6.778;2023-02-23T08:23:52;101230.41;;;8.77;100.00
67697;BME280;54486;51.442;6.778;2023-02-23T08:26:20;101220.88;;;8.80;100.00
67697;BME280;54486;51.442;6.778;2023-02-23T08:28:48;101224.34;;;8.82;100.00
67697;BME280;54486;51.442;6.778;2023-02-23T08:31:15;101236.50;;;8.82;100.00
67697;BME280;54486;51.442;6.778;2023-02-23T08:33:45;101236.56;;;8.89;100.00
67697;BME280;54486;51.442;6.778;2023-02-23T08:36:12;101230.50;;;8.92;100.00
67697;BME280;54486;51.442;6.778;2023-02-23T08:38:40;101238.34;;;8.96;100.00
67697;BME280;54486;51.442;6.778;2023-02-23T08:41:07;101240.03;;;8.91;100.00
67697;BME280;54486;51.442;6.778;2023-02-23T08:43:34;101245.28;;;9.00;100.00
67697;BME280;54486;51.442;6.778;2023-02-23T08:46:01;101243.59;;;9.06;100.00
67697;BME280;54486;51.442;6.778;2023-02-23T08:48:28;101236.69;;;9.11;100.00
67697;BME280;54486;51.442;6.778;2023-02-23T08:50:55;101245.41;;;9.19;100.00
67697;BME280;54486;51.442;6.778;2023-02-23T08:53:26;101244.47;;;9.06;100.00
67697;BME280;54486;51.442;6.778;2023-02-23T08:55:56;101241.06;;;9.15;100.00
67697;BME280;54486;51.442;6.778;2023-02-23T08:58:25;101242.81;;;9.16;100.00
67697;BME280;54486;51.442;6.778;2023-02-23T09:00:57;101244.56;;;9.23;100.00
67697;BME280;54486;51.442;6.778;2023-02-23T09:03:27;101244.53;;;9.20;100.00
67697;BME280;54486;51.442;6.778;2023-02-23T09:06:04;101249.69;;;9.09;100.00
67697;BME280;54486;51.442;6.778;2023-02-23T09:08:32;101249.69;;;9.08;100.00
67697;BME280;54486;51.442;6.778;2023-02-23T09:11:00;101253.84;;;8.84;100.00
67697;BME280;54486;51.442;6.778;2023-02-23T09:13:27;101252.97;;;8.84;100.00
67697;BME280;54486;51.442;6.778;2023-02-23T09:15:54;101256.47;;;8.83;100.00
67697;BME280;54486;51.442;6.778;2023-02-23T09:18:21;101261.66;;;8.83;100.00
67697;BME280;54486;51.442;6.778;2023-02-23T09:20:50;101271.19;;;8.82;100.00
67697;BME280;54486;51.442;6.778;2023-02-23T09:23:17;101270.31;;;8.82;100.00
67697;BME280;54486;51.442;6.778;2023-02-23T09:25:44;101271.16;;;8.76;100.00
67697;BME280;54486;51.442;6.778;2023-02-23T09:28:16;101271.16;;;8.79;100.00
67697;BME280;54486;51.442;6.778;2023-02-23T09:30:44;101265.13;;;8.82;100.00
67697;BME280;54486;51.442;6.778;2023-02-23T09:33:11;101265.13;;;8.85;100.00
67697;BME280;54486;51.442;6.778;2023-02-23T09:35:39;101276.41;;;8.82;100.00
67697;BME280;54486;51.442;6.778;2023-02-23T09:38:07;101264.28;;;8.90;100.00
67697;BME280;54486;51.442;6.778;2023-02-23T09:40:44;101269.59;;;8.99;100.00
67697;BME280;54486;51.442;6.778;2023-02-23T09:46:01;101269.69;;;9.15;100.00
67697;BME280;54486;51.442;6.778;2023-02-23T09:48:32;101276.66;;;9.19;100.00
67697;BME280;54486;51.442;6.778;2023-02-23T09:51:00;101285.31;;;9.18;100.00
67697;BME280;54486;51.442;6.778;2023-02-23T09:53:38;101285.34;;;9.21;100.00
67697;BME280;54486;51.442;6.778;2023-02-23T09:56:11;101291.41;;;9.15;100.00
67697;BME280;54486;51.442;6.778;2023-02-23T09:58:42;101291.38;;;9.17;100.00
67697;BME280;54486;51.442;6.778;2023-02-23T10:03:49;101301.78;;;9.12;100.00
67697;BME280;54486;51.442;6.778;2023-02-23T10:06:18;101304.38;;;9.14;100.00
67697;BME280;54486;51.442;6.778;2023-02-23T10:22:10;101320.94;;;9.19;100.00
67697;BME280;54486;51.442;6.778;2023-02-23T10:24:39;101321.63;;;8.96;100.00
67697;BME280;54486;51.442;6.778;2023-02-23T10:27:14;101328.50;;;8.91;100.00
67697;BME280;54486;51.442;6.778;2023-02-23T10:29:45;101328.56;;;8.97;100.00
67697;BME280;54486;51.442;6.778;2023-02-23T10:32:17;101325.91;;;8.91;100.00
67697;BME280;54486;51.442;6.778;2023-02-23T10:34:51;101328.56;;;9.00;100.00
67697;BME280;54486;51.442;6.778;2023-02-23T10:37:21;101328.59;;;9.03;100.00
67697;BME280;54486;51.442;6.778;2023-02-23T10:39:49;101325.06;;;8.92;100.00
67697;BME280;54486;51.442;6.778;2023-02-23T10:42:21;101336.34;;;8.94;100.00
67697;BME280;54486;51.442;6.778;2023-02-23T10:44:48;101330.25;;;8.92;100.00
67697;BME280;54486;51.442;6.778;2023-02-23T10:47:19;101331.81;;;8.72;100.00
67697;BME280;54486;51.442;6.778;2023-02-23T10:49:49;101333.34;;;8.52;100.00
67697;BME280;54486;51.442;6.778;2023-02-23T10:54:58;101338.44;;;8.40;100.00
67697;BME280;54486;51.442;6.778;2023-02-23T11:02:28;101329.00;;;8.49;100.00
67697;BME280;54486;51.442;6.778;2023-02-23T11:04:57;101331.59;;;8.48;100.00
67697;BME280;54486;51.442;6.778;2023-02-23T11:07:31;101338.50;;;8.46;100.00
67697;BME280;54486;51.442;6.778;2023-02-23T11:12:44;101349.84;;;8.54;100.00
67697;BME280;54486;51.442;6.778;2023-02-23T11:18:02;101347.31;;;8.60;100.00
67697;BME280;54486;51.442;6.778;2023-02-23T11:20:32;101345.66;;;8.70;100.00
67697;BME280;54486;51.442;6.778;2023-02-23T11:23:08;101344.91;;;8.80;100.00
67697;BME280;54486;51.442;6.778;2023-02-23T11:25:41;101353.53;;;8.76;100.00
67697;BME280;54486;51.442;6.778;2023-02-23T11:28:20;101343.16;;;8.82;100.00
67697;BME280;54486;51.442;6.778;2023-02-23T11:30:50;101345.84;;;8.89;100.00
67697;BME280;54486;51.442;6.778;2023-02-23T11:33:18;101342.41;;;8.93;100.00
67697;BME280;54486;51.442;6.778;2023-02-23T11:35:47;101338.13;;;9.03;100.00
67697;BME280;54486;51.442;6.778;2023-02-23T11:38:16;101339.91;;;9.02;100.00
67697;BME280;54486;51.442;6.778;2023-02-23T11:41:01;101341.59;;;8.99;100.00
67697;BME280;54486;51.442;6.778;2023-02-23T11:43:28;101338.94;;;8.94;100.00
67697;BME280;54486;51.442;6.778;2023-02-23T11:45:56;101339.84;;;8.98;100.00
67697;BME280;54486;51.442;6.778;2023-02-23T11:50:52;101337.16;;;8.90;100.00
67697;BME280;54486;51.442;6.778;2023-02-23T11:53:29;101339.69;;;8.81;100.00
67697;BME280;54486;51.442;6.778;2023-02-23T11:55:58;101345.84;;;8.89;100.00
67697;BME280;54486;51.442;6.778;2023-02-23T11:58:56;101344.91;;;8.84;100.00
67697;BME280;54486;51.442;6.778;2023-02-23T12:04:00;101328.41;;;8.79;100.00
67697;BME280;54486;51.442;6.778;2023-02-23T12:06:34;101328.38;;;8.76;100.00
67697;BME280;54486;51.442;6.778;2023-02-23T12:11:50;101318.00;;;8.79;100.00
67697;BME280;54486;51.442;6.778;2023-02-23T12:17:10;101317.19;;;8.83;100.00
67697;BME280;54486;51.442;6.778;2023-02-23T12:19:43;101314.56;;;8.80;100.00
67697;BME280;54486;51.442;6.778;2023-02-23T12:22:13;101324.88;;;8.74;100.00
67697;BME280;54486;51.442;6.778;2023-02-23T12:24:49;101321.28;;;8.57;100.00
67697;BME280;54486;51.442;6.778;2023-02-23T12:27:28;101335.22;;;8.65;100.00
67697;BME280;54486;51.442;6.778;2023-02-23T12:30:17;101336.06;;;8.61;100.00
67697;BME280;54486;51.442;6.778;2023-02-23T12:35:20;101330.84;;;8.61;100.00
67697;BME280;54486;51.442;6.778;2023-02-23T12:37:58;101325.66;;;8.61;100.00
67697;BME280;54486;51.442;6.778;2023-02-23T12:40:29;101330.03;;;8.68;100.00
67697;BME280;54486;51.442;6.778;2023-02-23T12:43:06;101330.94;;;8.70;100.00
67697;BME280;54486;51.442;6.778;2023-02-23T12:45:50;101324.03;;;8.75;100.00
67697;BME280;54486;51.442;6.778;2023-02-23T12:51:02;101326.63;;;8.75;100.00
67697;BME280;54486;51.442;6.778;2023-02-23T12:58:41;101319.81;;;8.86;100.00
67697;BME280;54486;51.442;6.778;2023-02-23T13:01:15;101321.53;;;8.87;100.00
67697;BME280;54486;51.442;6.778;2023-02-23T13:03:49;101315.50;;;8.90;100.00
67697;BME280;54486;51.442;6.778;2023-02-23T13:09:05;101325.06;;;8.95;100.00
67697;BME280;54486;51.442;6.778;2023-02-23T13:16:42;101328.63;;;9.07;99.46
67697;BME280;54486;51.442;6.778;2023-02-23T13:22:01;101333.84;;;9.10;99.50
67697;BME280;54486;51.442;6.778;2023-02-23T13:24:34;101325.22;;;9.17;100.00
67697;BME280;54486;51.442;6.778;2023-02-23T13:29:38;101327.06;;;9.33;100.00
67697;BME280;54486;51.442;6.778;2023-02-23T13:32:13;101332.31;;;9.39;99.31
67697;BME280;54486;51.442;6.778;2023-02-23T13:34:49;101332.31;;;9.36;99.09
67697;BME280;54486;51.442;6.778;2023-02-23T13:37:20;101325.41;;;9.45;98.11
67697;BME280;54486;51.442;6.778;2023-02-23T13:39:58;101337.50;;;9.36;97.02
67697;BME280;54486;51.442;6.778;2023-02-23T13:45:05;101326.22;;;9.31;96.60
67697;BME280;54486;51.442;6.778;2023-02-23T13:47:42;101325.44;;;9.47;96.98
67697;BME280;54486;51.442;6.778;2023-02-23T13:50:21;101328.91;;;9.46;95.77
67697;BME280;54486;51.442;6.778;2023-02-23T13:52:52;101319.25;;;9.30;93.64
67697;BME280;54486;51.442;6.778;2023-02-23T13:58:11;101313.97;;;9.21;93.89
67697;BME280;54486;51.442;6.778;2023-02-23T14:00:41;101323.53;;;9.19;95.27
67697;BME280;54486;51.442;6.778;2023-02-23T14:03:19;101333.94;;;9.16;93.17
67697;BME280;54486;51.442;6.778;2023-02-23T14:05:48;101329.59;;;9.18;93.87
67697;BME280;54486;51.442;6.778;2023-02-23T14:08:38;101332.13;;;9.09;95.06
67697;BME280;54486;51.442;6.778;2023-02-23T14:11:07;101338.16;;;9.04;94.83
67697;BME280;54486;51.442;6.778;2023-02-23T14:13:40;101337.28;;;8.99;94.51
67697;BME280;54486;51.442;6.778;2023-02-23T14:16:23;101347.69;;;9.02;95.43
67697;BME280;54486;51.442;6.778;2023-02-23T14:21:40;101328.59;;;9.03;97.31
67697;BME280;54486;51.442;6.778;2023-02-23T14:24:15;101332.94;;;9.01;97.02
67697;BME280;54486;51.442;6.778;2023-02-23T14:27:18;101335.53;;;9.01;96.29
67697;BME280;54486;51.442;6.778;2023-02-23T14:34:53;101338.97;;;8.97;96.77
67697;BME280;54486;51.442;6.778;2023-02-23T14:37:25;101343.28;;;8.92;97.63
67697;BME280;54486;51.442;6.778;2023-02-23T14:39:54;101343.31;;;8.95;98.04
67697;BME280;54486;51.442;6.778;2023-02-23T14:42:26;101337.28;;;9.02;97.88
67697;BME280;54486;51.442;6.778;2023-02-23T14:44:55;101333.75;;;8.94;98.74
67697;BME280;54486;51.442;6.778;2023-02-23T14:47:26;101342.47;;;8.99;97.97
67697;BME280;54486;51.442;6.778;2023-02-23T14:49:58;101337.28;;;8.99;98.28
67697;BME280;54486;51.442;6.778;2023-02-23T14:52:26;101341.56;;;8.96;97.87
67697;BME280;54486;51.442;6.778;2023-02-23T14:57:38;101335.53;;;9.01;98.36
67697;BME280;54486;51.442;6.778;2023-02-23T15:00:06;101336.47;;;9.08;98.38
67697;BME280;54486;51.442;6.778;2023-02-23T15:02:35;101337.34;;;9.12;98.31
67697;BME280;54486;51.442;6.778;2023-02-23T15:05:19;101340.84;;;9.14;98.32
67697;BME280;54486;51.442;6.778;2023-02-23T15:07:48;101347.81;;;9.18;98.07